sensor_id;sensor_type;location;lat;lon;timestamp;pressure;altitude;pressure_sealevel;temperature;humidity
73518;BME280;61766;60.318;25.044;2024-01-11T00:00:25;100561.47;;;3.22;45.61
73518;BME280;61766;60.318;25.044;2024-01-11T00:02:50;100564.36;;;2.43;47.32
73518;BME280;61766;60.318;25.044;2024-01-11T00:05:15;100566.53;;;3.36;45.70
73518;BME280;61766;60.318;25.044;2024-01-11T00:07:41;100561.79;;;3.37;45.84
73518;BME280;61766;60.318;25.044;2024-01-11T00:10:06;100569.84;;;3.63;45.48
73518;BME280;61766;60.318;25.044;2024-01-11T00:12:31;100561.74;;;3.55;45.52
73518;BME280;61766;60.318;25.044;2024-01-11T00:14:56;100566.93;;;3.90;45.17
73518;BME280;61766;60.318;25.044;2024-01-11T00:17:21;100571.36;;;3.07;46.00
73518;BME280;61766;60.318;25.044;2024-01-11T00:19:46;100568.85;;;3.10;45.84
73518;BME280;61766;60.318;25.044;2024-01-11T00:22:12;100575.39;;;2.58;46.89
73518;BME280;61766;60.318;25.044;2024-01-11T00:24:37;100573.11;;;2.93;46.17
73518;BME280;61766;60.318;25.044;2024-01-11T00:27:02;100570.46;;;2.85;45.93
73518;BME280;61766;60.318;25.044;2024-01-11T00:29:27;100578.45;;;3.46;45.24
73518;BME280;61766;60.318;25.044;2024-01-11T00:31:52;100589.99;;;3.28;44.68
73518;BME280;61766;60.318;25.044;2024-01-11T00:34:17;100595.59;;;3.53;44.69
73518;BME280;61766;60.318;25.044;2024-01-11T00:36:42;100599.70;;;3.61;43.94
73518;BME280;61766;60.318;25.044;2024-01-11T00:39:08;100607.56;;;3.46;44.16
73518;BME280;61766;60.318;25.044;2024-01-11T00:41:33;100605.34;;;4.17;43.76
73518;BME280;61766;60.318;25.044;2024-01-11T00:43:58;100617.76;;;3.87;44.18
73518;BME280;61766;60.318;25.044;2024-01-11T00:46:25;100623.67;;;3.43;44.28
73518;BME280;61766;60.318;25.044;2024-01-11T00:48:49;100625.86;;;3.47;44.55
73518;BME280;61766;60.318;25.044;2024-01-11T00:51:14;100606.15;;;3.64;43.82
73518;BME280;61766;60.318;25.044;2024-01-11T00:53:39;100615.37;;;3.02;43.95
73518;BME280;61766;60.318;25.044;2024-01-11T00:56:04;100624.10;;;3.95;43.74
73518;BME280;61766;60.318;25.044;2024-01-11T00:58:29;100618.73;;;3.64;43.48
73518;BME280;61766;60.318;25.044;2024-01-11T01:00:54;100618.60;;;3.59;43.34
73518;BME280;61766;60.318;25.044;2024-01-11T01:03:19;100626.79;;;3.69;43.36
73518;BME280;61766;60.318;25.044;2024-01-11T01:05:44;100620.73;;;3.16;42.94
73518;BME280;61766;60.318;25.044;2024-01-11T01:08:09;100626.83;;;3.53;42.62
73518;BME280;61766;60.318;25.044;2024-01-11T01:10:34;100624.26;;;2.69;43.29
73518;BME280;61766;60.318;25.044;2024-01-11T01:13:00;100631.36;;;2.52;43.40
73518;BME280;61766;60.318;25.044;2024-01-11T01:15:25;100640.02;;;2.68;42.84
73518;BME280;61766;60.318;25.044;2024-01-11T01:17:50;100628.64;;;2.12;43.80
73518;BME280;61766;60.318;25.044;2024-01-11T01:20:15;100634.69;;;1.90;43.71
73518;BME280;61766;60.318;25.044;2024-01-11T01:22:40;100641.53;;;2.21;43.62
73518;BME280;61766;60.318;25.044;2024-01-11T01:25:06;100644.98;;;2.44;42.87
73518;BME280;61766;60.318;25.044;2024-01-11T01:27:31;100642.93;;;2.70;42.09
73518;BME280;61766;60.318;25.044;2024-01-11T01:29:56;100652.64;;;1.85;43.96
73518;BME280;61766;60.318;25.044;2024-01-11T01:32:21;100655.79;;;2.77;44.47
73518;BME280;61766;60.318;25.044;2024-01-11T01:34:46;100657.92;;;2.53;43.83
73518;BME280;61766;60.318;25.044;2024-01-11T01:37:11;100660.22;;;3.05;42.80
73518;BME280;61766;60.318;25.044;2024-01-11T01:39:40;100664.50;;;3.06;42.37
73518;BME280;61766;60.318;25.044;2024-01-11T01:42:02;100672.91;;;2.79;41.67
73518;BME280;61766;60.318;25.044;2024-01-11T01:44:27;100676.56;;;2.82;42.56
73518;BME280;61766;60.318;25.044;2024-01-11T01:46:52;100684.09;;;2.98;41.97
73518;BME280;61766;60.318;25.044;2024-01-11T01:49:17;100685.14;;;3.08;41.76
73518;BME280;61766;60.318;25.044;2024-01-11T01:51:42;100688.00;;;3.06;41.77
73518;BME280;61766;60.318;25.044;2024-01-11T01:54:07;100692.72;;;2.95;41.69
73518;BME280;61766;60.318;25.044;2024-01-11T01:56:33;100699.45;;;3.34;41.58
73518;BME280;61766;60.318;25.044;2024-01-11T01:58:58;100704.08;;;3.26;42.67
73518;BME280;61766;60.318;25.044;2024-01-11T02:01:24;100706.19;;;3.29;41.49
73518;BME280;61766;60.318;25.044;2024-01-11T02:03:49;100713.62;;;3.28;40.78
73518;BME280;61766;60.318;25.044;2024-01-11T02:06:13;100720.05;;;3.98;40.44
73518;BME280;61766;60.318;25.044;2024-01-11T02:08:39;100719.61;;;3.66;40.77
73518;BME280;61766;60.318;25.044;2024-01-11T02:11:03;100718.48;;;3.87;40.44
73518;BME280;61766;60.318;25.044;2024-01-11T02:13:29;100720.33;;;4.15;39.77
73518;BME280;61766;60.318;25.044;2024-01-11T02:15:54;100721.08;;;3.47;41.04
73518;BME280;61766;60.318;25.044;2024-01-11T02:18:19;100730.10;;;3.70;40.76
73518;BME280;61766;60.318;25.044;2024-01-11T02:20:44;100731.52;;;3.38;40.82
73518;BME280;61766;60.318;25.044;2024-01-11T02:23:12;100737.36;;;2.96;41.85
73518;BME280;61766;60.318;25.044;2024-01-11T02:25:34;100739.70;;;3.18;41.02
73518;BME280;61766;60.318;25.044;2024-01-11T02:27:59;100739.13;;;3.13;41.40
73518;BME280;61766;60.318;25.044;2024-01-11T02:30:25;100748.38;;;3.25;40.98
73518;BME280;61766;60.318;25.044;2024-01-11T02:32:52;100746.88;;;3.37;40.83
73518;BME280;61766;60.318;25.044;2024-01-11T02:35:15;100747.15;;;3.74;40.57
73518;BME280;61766;60.318;25.044;2024-01-11T02:37:40;100758.98;;;3.90;40.67
73518;BME280;61766;60.318;25.044;2024-01-11T02:40:06;100758.71;;;3.41;40.77
73518;BME280;61766;60.318;25.044;2024-01-11T02:42:30;100763.04;;;4.08;39.74
73518;BME280;61766;60.318;25.044;2024-01-11T02:44:56;100766.80;;;3.28;40.77
73518;BME280;61766;60.318;25.044;2024-01-11T02:47:21;100763.58;;;3.02;40.97
73518;BME280;61766;60.318;25.044;2024-01-11T02:49:46;100775.20;;;2.82;41.35
73518;BME280;61766;60.318;25.044;2024-01-11T02:52:11;100774.80;;;3.08;41.50
73518;BME280;61766;60.318;25.044;2024-01-11T02:54:36;100770.93;;;2.84;40.98
73518;BME280;61766;60.318;25.044;2024-01-11T02:57:02;100778.25;;;3.14;40.86
73518;BME280;61766;60.318;25.044;2024-01-11T02:59:26;100780.28;;;2.77;40.89
73518;BME280;61766;60.318;25.044;2024-01-11T03:01:52;100785.18;;;3.39;39.93
73518;BME280;61766;60.318;25.044;2024-01-11T03:04:17;100778.67;;;3.17;40.70
73518;BME280;61766;60.318;25.044;2024-01-11T03:06:42;100788.57;;;2.87;41.33
73518;BME280;61766;60.318;25.044;2024-01-11T03:09:07;100792.05;;;2.93;41.00
73518;BME280;61766;60.318;25.044;2024-01-11T03:11:32;100796.95;;;3.01;40.59
73518;BME280;61766;60.318;25.044;2024-01-11T03:13:57;100791.82;;;2.06;41.72
73518;BME280;61766;60.318;25.044;2024-01-11T03:16:23;100798.61;;;2.94;40.66
73518;BME280;61766;60.318;25.044;2024-01-11T03:18:48;100806.71;;;2.48;40.76
73518;BME280;61766;60.318;25.044;2024-01-11T03:21:13;100802.94;;;2.57;41.21
73518;BME280;61766;60.318;25.044;2024-01-11T03:23:39;100804.30;;;2.47;40.95
73518;BME280;61766;60.318;25.044;2024-01-11T03:26:03;100814.74;;;2.83;40.76
73518;BME280;61766;60.318;25.044;2024-01-11T03:28:28;100815.22;;;1.59;41.91
73518;BME280;61766;60.318;25.044;2024-01-11T03:30:54;100816.43;;;1.17;42.20
73518;BME280;61766;60.318;25.044;2024-01-11T03:33:19;100830.60;;;2.30;40.98
73518;BME280;61766;60.318;25.044;2024-01-11T03:35:44;100829.28;;;2.22;41.20
73518;BME280;61766;60.318;25.044;2024-01-11T03:38:09;100828.46;;;2.35;41.05
73518;BME280;61766;60.318;25.044;2024-01-11T03:40:34;100825.82;;;1.78;40.80
73518;BME280;61766;60.318;25.044;2024-01-11T03:43:00;100824.08;;;2.32;40.29
73518;BME280;61766;60.318;25.044;2024-01-11T03:45:25;100826.27;;;2.21;39.83
73518;BME280;61766;60.318;25.044;2024-01-11T03:47:50;100829.55;;;3.08;39.73
73518;BME280;61766;60.318;25.044;2024-01-11T03:50:15;100821.19;;;3.57;38.10
73518;BME280;61766;60.318;25.044;2024-01-11T03:52:41;100832.85;;;2.91;38.47
73518;BME280;61766;60.318;25.044;2024-01-11T03:55:06;100831.60;;;3.25;38.39
73518;BME280;61766;60.318;25.044;2024-01-11T03:57:31;100831.23;;;3.09;38.66
73518;BME280;61766;60.318;25.044;2024-01-11T03:59:56;100841.02;;;3.28;37.75
73518;BME280;61766;60.318;25.044;2024-01-11T04:02:21;100842.19;;;2.24;39.62
73518;BME280;61766;60.318;25.044;2024-01-11T04:04:46;100843.73;;;2.60;38.74
73518;BME280;61766;60.318;25.044;2024-01-11T04:07:11;100850.22;;;2.04;39.47
73518;BME280;61766;60.318;25.044;2024-01-11T04:09:37;100851.15;;;2.21;39.34
73518;BME280;61766;60.318;25.044;2024-01-11T04:12:02;100850.46;;;2.81;37.82
73518;BME280;61766;60.318;25.044;2024-01-11T04:14:27;100854.75;;;2.91;38.23
73518;BME280;61766;60.318;25.044;2024-01-11T04:16:52;100856.67;;;2.67;37.82
73518;BME280;61766;60.318;25.044;2024-01-11T04:19:17;100858.41;;;2.74;37.73
73518;BME280;61766;60.318;25.044;2024-01-11T04:21:42;100862.52;;;2.21;38.50
73518;BME280;61766;60.318;25.044;2024-01-11T04:24:08;100873.26;;;2.87;37.37
73518;BME280;61766;60.318;25.044;2024-01-11T04:26:33;100875.85;;;1.94;38.97
73518;BME280;61766;60.318;25.044;2024-01-11T04:28:58;100882.99;;;2.41;38.43
73518;BME280;61766;60.318;25.044;2024-01-11T04:31:23;100883.27;;;2.88;37.82
73518;BME280;61766;60.318;25.044;2024-01-11T04:33:49;100883.88;;;2.72;38.01
73518;BME280;61766;60.318;25.044;2024-01-11T04:36:14;100888.52;;;2.10;38.84
73518;BME280;61766;60.318;25.044;2024-01-11T04:38:39;100893.63;;;1.94;39.29
73518;BME280;61766;60.318;25.044;2024-01-11T04:41:07;100905.83;;;2.32;38.86
73518;BME280;61766;60.318;25.044;2024-01-11T04:43:29;100912.62;;;2.16;38.43
73518;BME280;61766;60.318;25.044;2024-01-11T04:45:54;100910.38;;;2.24;38.75
73518;BME280;61766;60.318;25.044;2024-01-11T04:48:19;100902.32;;;2.22;38.58
73518;BME280;61766;60.318;25.044;2024-01-11T04:50:45;100904.20;;;1.56;39.80
73518;BME280;61766;60.318;25.044;2024-01-11T04:53:10;100910.95;;;1.50;39.75
73518;BME280;61766;60.318;25.044;2024-01-11T04:55:35;100916.27;;;0.91;40.45
73518;BME280;61766;60.318;25.044;2024-01-11T04:58:00;100917.97;;;1.67;39.74
73518;BME280;61766;60.318;25.044;2024-01-11T05:00:25;100921.80;;;1.15;40.49
73518;BME280;61766;60.318;25.044;2024-01-11T05:02:51;100920.51;;;1.34;40.53
73518;BME280;61766;60.318;25.044;2024-01-11T05:05:16;100920.72;;;1.51;39.59
73518;BME280;61766;60.318;25.044;2024-01-11T05:07:41;100926.63;;;1.25;39.51
73518;BME280;61766;60.318;25.044;2024-01-11T05:10:07;100919.65;;;2.02;38.59
73518;BME280;61766;60.318;25.044;2024-01-11T05:12:31;100925.94;;;1.59;38.26
73518;BME280;61766;60.318;25.044;2024-01-11T05:14:57;100931.13;;;0.84;39.23
73518;BME280;61766;60.318;25.044;2024-01-11T05:17:22;100936.56;;;1.46;38.52
73518;BME280;61766;60.318;25.044;2024-01-11T05:19:47;100942.60;;;1.95;37.41
73518;BME280;61766;60.318;25.044;2024-01-11T05:22:12;100948.84;;;1.79;38.13
73518;BME280;61766;60.318;25.044;2024-01-11T05:24:37;100953.26;;;2.02;36.66
73518;BME280;61766;60.318;25.044;2024-01-11T05:27:03;100952.95;;;1.06;37.05
73518;BME280;61766;60.318;25.044;2024-01-11T05:29:28;100955.23;;;2.08;36.30
73518;BME280;61766;60.318;25.044;2024-01-11T05:31:53;100961.18;;;1.98;35.68
73518;BME280;61766;60.318;25.044;2024-01-11T05:34:18;100970.09;;;2.35;34.62
73518;BME280;61766;60.318;25.044;2024-01-11T05:36:43;100979.18;;;2.41;34.81
73518;BME280;61766;60.318;25.044;2024-01-11T05:39:09;100981.64;;;2.49;34.54
73518;BME280;61766;60.318;25.044;2024-01-11T05:41:34;100989.99;;;2.46;34.60
73518;BME280;61766;60.318;25.044;2024-01-11T05:43:59;101005.78;;;2.30;34.39
73518;BME280;61766;60.318;25.044;2024-01-11T05:46:24;101010.88;;;2.14;34.71
73518;BME280;61766;60.318;25.044;2024-01-11T05:48:49;101029.99;;;1.52;37.24
73518;BME280;61766;60.318;25.044;2024-01-11T05:51:15;101055.98;;;1.27;39.16
73518;BME280;61766;60.318;25.044;2024-01-11T05:53:40;101079.08;;;0.88;42.39
73518;BME280;61766;60.318;25.044;2024-01-11T05:56:10;101080.48;;;1.08;42.76
73518;BME280;61766;60.318;25.044;2024-01-11T05:58:30;101083.70;;;-0.24;44.99
73518;BME280;61766;60.318;25.044;2024-01-11T06:00:56;101086.43;;;0.23;42.95
73518;BME280;61766;60.318;25.044;2024-01-11T06:03:21;101085.19;;;0.20;42.63
73518;BME280;61766;60.318;25.044;2024-01-11T06:05:46;101087.32;;;1.07;40.90
73518;BME280;61766;60.318;25.044;2024-01-11T06:08:11;101098.31;;;0.16;41.46
73518;BME280;61766;60.318;25.044;2024-01-11T06:10:37;101104.15;;;0.26;41.21
73518;BME280;61766;60.318;25.044;2024-01-11T06:13:02;101111.27;;;0.25;40.86
73518;BME280;61766;60.318;25.044;2024-01-11T06:15:27;101113.95;;;0.16;40.47
73518;BME280;61766;60.318;25.044;2024-01-11T06:17:52;101123.03;;;0.68;39.13
73518;BME280;61766;60.318;25.044;2024-01-11T06:20:18;101129.32;;;0.73;38.54
73518;BME280;61766;60.318;25.044;2024-01-11T06:22:43;101136.81;;;0.81;37.65
73518;BME280;61766;60.318;25.044;2024-01-11T06:25:08;101150.57;;;0.38;37.24
73518;BME280;61766;60.318;25.044;2024-01-11T06:27:33;101157.80;;;-0.16;37.64
73518;BME280;61766;60.318;25.044;2024-01-11T06:29:59;101160.66;;;0.38;36.81
73518;BME280;61766;60.318;25.044;2024-01-11T06:32:24;101169.39;;;0.53;36.20
73518;BME280;61766;60.318;25.044;2024-01-11T06:34:49;101177.62;;;0.14;36.32
73518;BME280;61766;60.318;25.044;2024-01-11T06:37:14;101186.60;;;0.05;35.94
73518;BME280;61766;60.318;25.044;2024-01-11T06:39:39;101197.36;;;0.28;34.79
73518;BME280;61766;60.318;25.044;2024-01-11T06:42:05;101213.32;;;0.23;34.28
73518;BME280;61766;60.318;25.044;2024-01-11T06:44:30;101219.48;;;-0.06;34.05
73518;BME280;61766;60.318;25.044;2024-01-11T06:46:55;101239.21;;;-0.57;33.40
73518;BME280;61766;60.318;25.044;2024-01-11T06:49:20;101266.33;;;-0.90;32.73
73518;BME280;61766;60.318;25.044;2024-01-11T06:51:46;101261.64;;;-0.53;32.29
73518;BME280;61766;60.318;25.044;2024-01-11T06:54:11;101263.65;;;-0.87;33.03
73518;BME280;61766;60.318;25.044;2024-01-11T06:56:36;101282.46;;;-1.21;32.22
73518;BME280;61766;60.318;25.044;2024-01-11T06:59:01;101281.39;;;-0.92;30.93
73518;BME280;61766;60.318;25.044;2024-01-11T07:01:27;101294.59;;;-0.91;32.04
73518;BME280;61766;60.318;25.044;2024-01-11T07:03:53;101299.70;;;-1.24;31.77
73518;BME280;61766;60.318;25.044;2024-01-11T07:06:18;101299.57;;;-1.00;31.07
73518;BME280;61766;60.318;25.044;2024-01-11T07:08:43;101306.51;;;-1.51;31.44
73518;BME280;61766;60.318;25.044;2024-01-11T07:11:08;101309.18;;;-1.57;31.72
73518;BME280;61766;60.318;25.044;2024-01-11T07:13:34;101312.00;;;-1.72;31.52
73518;BME280;61766;60.318;25.044;2024-01-11T07:15:59;101325.82;;;-1.10;30.62
73518;BME280;61766;60.318;25.044;2024-01-11T07:18:24;101332.48;;;-1.39;30.95
73518;BME280;61766;60.318;25.044;2024-01-11T07:20:50;101334.51;;;-2.16;31.46
73518;BME280;61766;60.318;25.044;2024-01-11T07:23:15;101348.07;;;-1.12;31.36
73518;BME280;61766;60.318;25.044;2024-01-11T07:25:40;101351.07;;;-1.58;30.83
73518;BME280;61766;60.318;25.044;2024-01-11T07:28:05;101359.86;;;-1.56;30.69
73518;BME280;61766;60.318;25.044;2024-01-11T07:30:31;101382.28;;;-1.75;31.75
73518;BME280;61766;60.318;25.044;2024-01-11T07:32:56;101383.71;;;-1.81;31.20
73518;BME280;61766;60.318;25.044;2024-01-11T07:35:21;101381.88;;;-1.85;30.77
73518;BME280;61766;60.318;25.044;2024-01-11T07:37:46;101403.20;;;-2.83;33.47
73518;BME280;61766;60.318;25.044;2024-01-11T07:40:13;101403.33;;;-2.43;31.78
73518;BME280;61766;60.318;25.044;2024-01-11T07:42:37;101415.67;;;-2.14;31.91
73518;BME280;61766;60.318;25.044;2024-01-11T07:45:03;101431.57;;;-2.21;30.27
73518;BME280;61766;60.318;25.044;2024-01-11T07:47:28;101430.47;;;-1.92;30.08
73518;BME280;61766;60.318;25.044;2024-01-11T07:49:53;101439.80;;;-2.22;30.48
73518;BME280;61766;60.318;25.044;2024-01-11T07:52:18;101451.32;;;-1.62;31.03
73518;BME280;61766;60.318;25.044;2024-01-11T07:54:44;101451.38;;;-2.01;30.76
73518;BME280;61766;60.318;25.044;2024-01-11T07:57:09;101466.92;;;-1.98;31.16
73518;BME280;61766;60.318;25.044;2024-01-11T07:59:36;101466.45;;;-1.76;31.42
73518;BME280;61766;60.318;25.044;2024-01-11T08:02:00;101471.29;;;-1.55;31.25
73518;BME280;61766;60.318;25.044;2024-01-11T08:04:25;101482.04;;;-1.72;30.62
73518;BME280;61766;60.318;25.044;2024-01-11T08:06:50;101489.71;;;-1.80;31.24
73518;BME280;61766;60.318;25.044;2024-01-11T08:09:16;101491.10;;;-2.52;31.72
73518;BME280;61766;60.318;25.044;2024-01-11T08:11:41;101505.06;;;-1.69;31.50
73518;BME280;61766;60.318;25.044;2024-01-11T08:14:07;101521.95;;;-2.44;31.37
73518;BME280;61766;60.318;25.044;2024-01-11T08:16:32;101515.18;;;-2.26;30.56
73518;BME280;61766;60.318;25.044;2024-01-11T08:18:57;101524.32;;;-2.11;30.39
73518;BME280;61766;60.318;25.044;2024-01-11T08:21:22;101517.14;;;-2.08;29.55
73518;BME280;61766;60.318;25.044;2024-01-11T08:23:48;101537.40;;;-2.18;30.52
73518;BME280;61766;60.318;25.044;2024-01-11T08:26:14;101530.21;;;-2.15;29.50
73518;BME280;61766;60.318;25.044;2024-01-11T08:28:38;101540.30;;;-2.41;28.95
73518;BME280;61766;60.318;25.044;2024-01-11T08:31:04;101542.50;;;-1.99;29.37
73518;BME280;61766;60.318;25.044;2024-01-11T08:33:29;101549.99;;;-2.71;29.11
73518;BME280;61766;60.318;25.044;2024-01-11T08:35:54;101551.85;;;-1.84;28.69
73518;BME280;61766;60.318;25.044;2024-01-11T08:38:20;101559.65;;;-2.21;28.98
73518;BME280;61766;60.318;25.044;2024-01-11T08:40:45;101564.29;;;-2.07;29.09
73518;BME280;61766;60.318;25.044;2024-01-11T08:43:10;101567.04;;;-2.60;30.36
73518;BME280;61766;60.318;25.044;2024-01-11T08:45:36;101571.72;;;-2.33;29.69
73518;BME280;61766;60.318;25.044;2024-01-11T08:48:01;101579.98;;;-2.41;30.32
73518;BME280;61766;60.318;25.044;2024-01-11T08:50:26;101576.34;;;-2.07;29.77
73518;BME280;61766;60.318;25.044;2024-01-11T08:52:52;101581.76;;;-2.86;30.14
73518;BME280;61766;60.318;25.044;2024-01-11T08:55:17;101581.23;;;-2.21;29.37
73518;BME280;61766;60.318;25.044;2024-01-11T08:57:42;101581.62;;;-2.62;29.47
73518;BME280;61766;60.318;25.044;2024-01-11T09:00:09;101588.74;;;-1.60;29.42
73518;BME280;61766;60.318;25.044;2024-01-11T09:02:33;101595.27;;;-1.85;29.40
73518;BME280;61766;60.318;25.044;2024-01-11T09:04:58;101606.45;;;-1.98;29.80
73518;BME280;61766;60.318;25.044;2024-01-11T09:07:24;101602.82;;;-1.95;29.72
73518;BME280;61766;60.318;25.044;2024-01-11T09:09:49;101606.02;;;-1.94;29.50
73518;BME280;61766;60.318;25.044;2024-01-11T09:12:16;101610.95;;;-2.23;29.28
73518;BME280;61766;60.318;25.044;2024-01-11T09:14:40;101616.13;;;-2.31;30.01
73518;BME280;61766;60.318;25.044;2024-01-11T09:17:06;101620.42;;;-2.35;29.68
73518;BME280;61766;60.318;25.044;2024-01-11T09:19:31;101618.18;;;-2.71;29.38
73518;BME280;61766;60.318;25.044;2024-01-11T09:21:56;101620.94;;;-2.23;29.66
73518;BME280;61766;60.318;25.044;2024-01-11T09:24:22;101621.30;;;-2.55;28.97
73518;BME280;61766;60.318;25.044;2024-01-11T09:26:47;101617.32;;;-2.48;28.93
73518;BME280;61766;60.318;25.044;2024-01-11T09:29:12;101621.47;;;-1.87;28.66
73518;BME280;61766;60.318;25.044;2024-01-11T09:31:38;101619.96;;;-3.18;28.91
73518;BME280;61766;60.318;25.044;2024-01-11T09:34:03;101629.19;;;-2.78;28.81
73518;BME280;61766;60.318;25.044;2024-01-11T09:36:28;101625.70;;;-2.81;28.63
73518;BME280;61766;60.318;25.044;2024-01-11T09:38:54;101624.97;;;-2.85;27.47
73518;BME280;61766;60.318;25.044;2024-01-11T09:41:19;101618.19;;;-2.05;27.81
73518;BME280;61766;60.318;25.044;2024-01-11T09:43:45;101622.73;;;-1.96;27.49
73518;BME280;61766;60.318;25.044;2024-01-11T09:46:10;101621.57;;;-1.80;27.21
73518;BME280;61766;60.318;25.044;2024-01-11T09:48:37;101620.71;;;-2.23;27.46
73518;BME280;61766;60.318;25.044;2024-01-11T09:51:02;101620.14;;;-2.07;27.77
73518;BME280;61766;60.318;25.044;2024-01-11T09:53:28;101620.73;;;-1.88;27.78
73518;BME280;61766;60.318;25.044;2024-01-11T09:55:52;101634.51;;;-2.47;27.81
73518;BME280;61766;60.318;25.044;2024-01-11T09:58:18;101642.28;;;-2.93;28.44
73518;BME280;61766;60.318;25.044;2024-01-11T10:00:42;101642.74;;;-2.55;28.97
73518;BME280;61766;60.318;25.044;2024-01-11T10:03:07;101648.81;;;-2.25;27.83
73518;BME280;61766;60.318;25.044;2024-01-11T10:05:33;101642.06;;;-3.24;27.99
73518;BME280;61766;60.318;25.044;2024-01-11T10:07:58;101642.66;;;-2.84;29.59
73518;BME280;61766;60.318;25.044;2024-01-11T10:10:23;101661.85;;;-3.36;29.81
73518;BME280;61766;60.318;25.044;2024-01-11T10:12:50;101669.40;;;-2.59;29.23
73518;BME280;61766;60.318;25.044;2024-01-11T10:15:14;101673.68;;;-2.82;29.59
73518;BME280;61766;60.318;25.044;2024-01-11T10:17:40;101684.08;;;-2.83;29.18
73518;BME280;61766;60.318;25.044;2024-01-11T10:20:05;101676.69;;;-2.00;28.51
73518;BME280;61766;60.318;25.044;2024-01-11T10:22:30;101680.14;;;-2.37;28.93
73518;BME280;61766;60.318;25.044;2024-01-11T10:25:09;101680.08;;;-1.75;28.54
73518;BME280;61766;60.318;25.044;2024-01-11T10:27:24;101696.08;;;-2.27;29.48
73518;BME280;61766;60.318;25.044;2024-01-11T10:29:46;101705.97;;;-2.48;30.12
73518;BME280;61766;60.318;25.044;2024-01-11T10:32:11;101702.10;;;-2.16;29.14
73518;BME280;61766;60.318;25.044;2024-01-11T10:34:37;101703.33;;;-2.22;29.74
73518;BME280;61766;60.318;25.044;2024-01-11T10:37:02;101702.83;;;-2.45;30.07
73518;BME280;61766;60.318;25.044;2024-01-11T10:39:29;101714.54;;;-1.92;29.93
73518;BME280;61766;60.318;25.044;2024-01-11T10:41:57;101719.70;;;-1.92;29.82
73518;BME280;61766;60.318;25.044;2024-01-11T10:44:21;101725.76;;;-2.78;30.61
73518;BME280;61766;60.318;25.044;2024-01-11T10:46:44;101735.04;;;-3.23;31.95
73518;BME280;61766;60.318;25.044;2024-01-11T10:49:09;101741.93;;;-3.39;31.91
73518;BME280;61766;60.318;25.044;2024-01-11T10:51:35;101749.99;;;-2.57;31.37
73518;BME280;61766;60.318;25.044;2024-01-11T10:53:59;101758.29;;;-2.81;30.96
73518;BME280;61766;60.318;25.044;2024-01-11T10:56:26;101760.98;;;-2.25;30.81
73518;BME280;61766;60.318;25.044;2024-01-11T10:58:50;101758.87;;;-2.27;30.91
73518;BME280;61766;60.318;25.044;2024-01-11T11:01:16;101758.62;;;-1.71;30.18
73518;BME280;61766;60.318;25.044;2024-01-11T11:03:41;101766.78;;;-1.90;30.36
73518;BME280;61766;60.318;25.044;2024-01-11T11:06:07;101767.10;;;-1.92;29.87
73518;BME280;61766;60.318;25.044;2024-01-11T11:08:31;101773.79;;;-2.23;30.21
73518;BME280;61766;60.318;25.044;2024-01-11T11:11:00;101785.88;;;-3.35;31.54
73518;BME280;61766;60.318;25.044;2024-01-11T11:13:23;101788.19;;;-1.82;30.28
73518;BME280;61766;60.318;25.044;2024-01-11T11:15:48;101790.67;;;-1.57;30.14
73518;BME280;61766;60.318;25.044;2024-01-11T11:18:13;101796.71;;;-1.42;29.78
73518;BME280;61766;60.318;25.044;2024-01-11T11:20:38;101799.08;;;-2.07;30.64
73518;BME280;61766;60.318;25.044;2024-01-11T11:23:07;101801.86;;;-2.60;30.73
73518;BME280;61766;60.318;25.044;2024-01-11T11:25:29;101807.91;;;-2.60;30.52
73518;BME280;61766;60.318;25.044;2024-01-11T11:27:54;101809.80;;;-2.41;30.39
73518;BME280;61766;60.318;25.044;2024-01-11T11:30:22;101825.11;;;-2.27;30.76
73518;BME280;61766;60.318;25.044;2024-01-11T11:32:46;101820.81;;;-2.27;30.35
73518;BME280;61766;60.318;25.044;2024-01-11T11:35:10;101825.03;;;-1.74;30.35
73518;BME280;61766;60.318;25.044;2024-01-11T11:37:36;101825.52;;;-2.32;30.07
73518;BME280;61766;60.318;25.044;2024-01-11T11:40:01;101826.63;;;-2.38;30.25
73518;BME280;61766;60.318;25.044;2024-01-11T11:42:26;101822.49;;;-2.17;30.21
73518;BME280;61766;60.318;25.044;2024-01-11T11:44:52;101832.93;;;-2.22;30.24
73518;BME280;61766;60.318;25.044;2024-01-11T11:47:22;101835.09;;;-2.64;30.36
73518;BME280;61766;60.318;25.044;2024-01-11T11:49:57;101832.12;;;-2.30;30.19
73518;BME280;61766;60.318;25.044;2024-01-11T11:54:32;101850.42;;;-2.06;30.26
73518;BME280;61766;60.318;25.044;2024-01-11T11:56:58;101851.33;;;-2.12;30.57
73518;BME280;61766;60.318;25.044;2024-01-11T11:59:23;101853.35;;;-2.66;31.22
73518;BME280;61766;60.318;25.044;2024-01-11T12:01:49;101857.33;;;-3.63;31.80
73518;BME280;61766;60.318;25.044;2024-01-11T12:04:17;101861.16;;;-2.91;31.41
73518;BME280;61766;60.318;25.044;2024-01-11T12:06:40;101860.69;;;-2.67;31.46
73518;BME280;61766;60.318;25.044;2024-01-11T12:09:05;101868.86;;;-2.47;31.41
73518;BME280;61766;60.318;25.044;2024-01-11T12:11:30;101872.11;;;-2.65;31.50
73518;BME280;61766;60.318;25.044;2024-01-11T12:13:55;101869.86;;;-2.52;31.52
73518;BME280;61766;60.318;25.044;2024-01-11T12:16:21;101878.07;;;-3.13;31.62
73518;BME280;61766;60.318;25.044;2024-01-11T12:18:46;101873.44;;;-2.57;31.66
73518;BME280;61766;60.318;25.044;2024-01-11T12:21:11;101886.67;;;-2.63;31.54
73518;BME280;61766;60.318;25.044;2024-01-11T12:23:38;101889.98;;;-3.70;32.86
73518;BME280;61766;60.318;25.044;2024-01-11T12:26:05;101890.94;;;-2.70;31.83
73518;BME280;61766;60.318;25.044;2024-01-11T12:28:27;101901.35;;;-3.13;32.33
73518;BME280;61766;60.318;25.044;2024-01-11T12:30:53;101892.75;;;-2.90;32.24
73518;BME280;61766;60.318;25.044;2024-01-11T12:33:18;101893.05;;;-3.08;31.89
73518;BME280;61766;60.318;25.044;2024-01-11T12:35:44;101896.12;;;-3.88;32.52